-> Other stations

1455

Speed(max): 6.5(9.2)knots
Direction:354° ( N)
Temperature: 26.0°C
Arrived: 2026-09-03 06:51:18 CEST

Past data:
hh:mmknots
Dir (°)
°C
06:49 4.9 5.9 NNW(343) 25.3
06:47 4.3 8.1 NNW(348) 24.7
06:45 3.2 4.9 NNW(333) 24.1
06:43 3.2 4.9 NNW(329) 23.8
06:41 3.2 4.3 NW(317) 23.3
06:39 3.8 5.4 NW(322) 23.2
06:37 2.7 4.3 NW(318) 22.3
06:35 2.2 3.8 NW(321) 21.8
06:33 1.6 3.8 WNW(300) 20.8
06:31 1.6 2.7 NW(305) 20.8
06:29 0.5 2.2 WNW(296) 20.8
06:27 0 0 W(272) 20.2
06:25 0 0 W(273) 20.2
06:23 0 0 W(273) 20.1
15 min. averages:
hh:mmknots
Dir (°)
°C
06:45 2.7 5.4 NW(316) 22.3
06:30 0.5 2.2 W(275) 20.3
06:15 0 2.7 WNW(302) 20.2
06:00 0.5 2.7 NW(304) 20.8
05:45 2.2 3.8 WNW(300) 21.4
05:30 2.2 3.8 WNW(283) 21.0
05:15 0 0 W(268) 20.4
05:00 0 0 W(268) 20.7
04:45 1.1 2.2 W(268) 20.7
04:30 0.5 2.2 W(268) 20.6
04:15 0 0 W(268) 20.2
04:00 0 0 W(268) 20.2
03:45 0 0 W(269) 19.8
03:30 0 0 W(268) 20.1
03:15 0 0 W(268) 21.0
Stations at HR:
1455
-> Other regions

Desktop view
Data provided by Holfuy.
© Holfuy Weather 2026